KAL922 LPPT-RKSI
Flight info
| Callsign | KAL922 |
|---|---|
| Flight time | N/A |
| Altitude | 32000 |
| Route | ORVED DCT UREDI DCT DIPOL DCT RBO DCT PINAR DCT SEGRE DCT BRITO N870 PONEN/N0483F330 N870 SEROX/N0484F320 N870 VILAR/N0483F340 N870 BCN N725 OSPOK/N0483F330 DCT NOLVI DCT ORKUM/N0483F320 DCT ELSAG/N0482F370 DCT ALG DCT NERRA DCT BUNEX DCT BAJUN DCT NISVA Q13 UDROS UM859 KARDE UN644 ROLIN DCT TAGAR DCT BT DCT BARAD M747 SUBUT T916 BALUN/K0885F370 T916 PIGAL M610 RULAD/K0872S1070 A343 IGLOT/K0883S1130 A343 POSOT B215 FKG W188 LIKMI W270 DKO W69 HUR B339 LADIX W34 VAPGU W100 ORAVA W201 UNSEK A326 NUNDU/K0859S0950 A326 SANKO/K0845S0890 A326 DONVO G597 AGAVO/N0455F290 Y644 REBIT REBIT2H |
| Aircraft | B77W/H-SDE1E2E3FGHIJ2J3J4J5M1RWXY/LB1D1 |
Departure
| Time | 2026-05-01 14:55 |
|---|---|
| Airport | Lisbon Humberto Delgado Airport (LPPT) |
Arrival
| Time | N/A |
|---|---|
| Airport | Incheon International Airport (RKSI) |
| Time | Latitude | Longitude | Altitude | Speed | Heading |
|---|---|---|---|---|---|
| 2026-05-01 14:38 | 38.77488 | -9.13172 | 345 ft | 0 kts | 78° |
| 2026-05-01 14:45 | 38.77488 | -9.13175 | 345 ft | 1 kts | 78° |
| 2026-05-01 14:45 | 38.77484 | -9.13196 | 355 ft | 3 kts | 78° |
| 2026-05-01 14:46 | 38.77483 | -9.13201 | 354 ft | 0 kts | 78° |
| 2026-05-01 14:46 | 38.77484 | -9.13201 | 354 ft | 0 kts | 78° |
| 2026-05-01 14:47 | 38.77483 | -9.13203 | 354 ft | 2 kts | 78° |
| 2026-05-01 14:47 | 38.77480 | -9.13220 | 353 ft | 2 kts | 78° |
| 2026-05-01 14:47 | 38.77477 | -9.13238 | 351 ft | 2 kts | 78° |
| 2026-05-01 14:48 | 38.77465 | -9.13266 | 348 ft | 2 kts | 34° |
| 2026-05-01 14:48 | 38.77461 | -9.13269 | 353 ft | 0 kts | 358° |
| 2026-05-01 14:48 | 38.77545 | -9.13309 | 352 ft | 13 kts | 345° |
| 2026-05-01 14:49 | 38.77697 | -9.13328 | 351 ft | 10 kts | 348° |
| 2026-05-01 14:49 | 38.77851 | -9.13369 | 353 ft | 14 kts | 348° |
| 2026-05-01 14:50 | 38.78007 | -9.13413 | 365 ft | 14 kts | 347° |
| 2026-05-01 14:50 | 38.78246 | -9.13477 | 371 ft | 17 kts | 347° |
| 2026-05-01 14:51 | 38.78359 | -9.13507 | 370 ft | 17 kts | 349° |
| 2026-05-01 14:51 | 38.78584 | -9.13567 | 378 ft | 17 kts | 351° |
| 2026-05-01 14:52 | 38.78805 | -9.13481 | 371 ft | 19 kts | 23° |
| 2026-05-01 14:52 | 38.78949 | -9.13404 | 362 ft | 24 kts | 22° |
| 2026-05-01 14:52 | 38.79252 | -9.13242 | 361 ft | 24 kts | 22° |
| 2026-05-01 14:53 | 38.79406 | -9.13159 | 364 ft | 24 kts | 23° |
| 2026-05-01 14:53 | 38.79560 | -9.13078 | 370 ft | 24 kts | 22° |
| 2026-05-01 14:53 | 38.79709 | -9.12999 | 371 ft | 15 kts | 22° |
| 2026-05-01 14:53 | 38.79769 | -9.12922 | 365 ft | 14 kts | 86° |
| 2026-05-01 14:54 | 38.79736 | -9.12795 | 363 ft | 13 kts | 126° |
| 2026-05-01 14:54 | 38.79617 | -9.12800 | 364 ft | 33 kts | 200° |
| 2026-05-01 14:54 | 38.79161 | -9.13043 | 364 ft | 108 kts | 202° |
| 2026-05-01 14:54 | 38.78258 | -9.13530 | 372 ft | 171 kts | 203° |
| 2026-05-01 14:55 | 38.77094 | -9.14140 | 868 ft | 180 kts | 205° |
| 2026-05-01 14:55 | 38.75914 | -9.14781 | 1543 ft | 188 kts | 206° |
| 2026-05-01 14:55 | 38.74687 | -9.15443 | 2195 ft | 193 kts | 205° |
| 2026-05-01 14:55 | 38.73392 | -9.16131 | 2473 ft | 212 kts | 204° |
| 2026-05-01 14:56 | 38.71949 | -9.16889 | 2633 ft | 237 kts | 203° |
| 2026-05-01 14:56 | 38.70368 | -9.17716 | 3051 ft | 249 kts | 202° |
| 2026-05-01 14:56 | 38.68750 | -9.18558 | 3740 ft | 253 kts | 202° |
| 2026-05-01 14:56 | 38.67096 | -9.19388 | 4375 ft | 256 kts | 196° |
| 2026-05-01 14:57 | 38.65317 | -9.19529 | 5012 ft | 261 kts | 166° |
| 2026-05-01 14:57 | 38.62468 | -9.16712 | 6410 ft | 272 kts | 120° |
| 2026-05-01 14:57 | 38.61673 | -9.14516 | 7153 ft | 273 kts | 115° |
| 2026-05-01 14:58 | 38.61079 | -9.12192 | 7741 ft | 279 kts | 97° |
| 2026-05-01 14:58 | 38.61331 | -9.09710 | 8271 ft | 289 kts | 68° |
| 2026-05-01 14:58 | 38.62509 | -9.07602 | 8783 ft | 299 kts | 38° |
| 2026-05-01 14:58 | 38.64363 | -9.06396 | 9309 ft | 302 kts | 17° |
| 2026-05-01 14:59 | 38.66391 | -9.05578 | 9883 ft | 309 kts | 16° |
| 2026-05-01 14:59 | 38.68463 | -9.04760 | 10471 ft | 314 kts | 16° |
| 2026-05-01 14:59 | 38.70611 | -9.03910 | 10730 ft | 334 kts | 16° |
| 2026-05-01 14:59 | 38.72904 | -9.02991 | 10877 ft | 356 kts | 17° |
| 2026-05-01 15:00 | 38.77896 | -9.00962 | 11325 ft | 394 kts | 17° |
| 2026-05-01 15:00 | 38.80541 | -8.99874 | 11838 ft | 404 kts | 17° |
| 2026-05-01 15:00 | 38.83245 | -8.98758 | 12459 ft | 412 kts | 17° |
| 2026-05-01 15:01 | 38.85975 | -8.97605 | 13159 ft | 413 kts | 20° |
| 2026-05-01 15:01 | 38.88492 | -8.95775 | 13679 ft | 422 kts | 43° |
| 2026-05-01 15:01 | 38.90464 | -8.93005 | 14234 ft | 423 kts | 51° |
| 2026-05-01 15:01 | 38.92409 | -8.90122 | 14806 ft | 430 kts | 50° |
| 2026-05-01 15:02 | 38.94412 | -8.87255 | 15510 ft | 433 kts | 49° |
| 2026-05-01 15:02 | 38.95756 | -8.85356 | 15977 ft | 435 kts | 49° |
| 2026-05-01 15:02 | 38.98510 | -8.81479 | 16826 ft | 442 kts | 48° |
| 2026-05-01 15:02 | 39.00593 | -8.78545 | 17471 ft | 447 kts | 48° |
| 2026-05-01 15:03 | 39.02669 | -8.75614 | 18131 ft | 451 kts | 48° |
| 2026-05-01 15:03 | 39.04791 | -8.72612 | 18746 ft | 455 kts | 48° |
| 2026-05-01 15:03 | 39.06929 | -8.69582 | 19322 ft | 459 kts | 48° |
| 2026-05-01 15:03 | 39.09076 | -8.66528 | 19895 ft | 460 kts | 49° |
| 2026-05-01 15:04 | 39.10904 | -8.63126 | 20310 ft | 465 kts | 67° |
| 2026-05-01 15:04 | 39.12036 | -8.59242 | 20744 ft | 466 kts | 73° |
| 2026-05-01 15:04 | 39.13067 | -8.55270 | 21245 ft | 470 kts | 73° |
| 2026-05-01 15:04 | 39.14113 | -8.51263 | 21827 ft | 473 kts | 72° |
| 2026-05-01 15:05 | 39.15188 | -8.47242 | 22393 ft | 477 kts | 72° |
| 2026-05-01 15:05 | 39.16294 | -8.43195 | 22918 ft | 481 kts | 71° |
| 2026-05-01 15:05 | 39.17426 | -8.39117 | 23413 ft | 485 kts | 71° |
| 2026-05-01 15:05 | 39.18575 | -8.35005 | 23865 ft | 490 kts | 71° |
| 2026-05-01 15:06 | 39.19734 | -8.30860 | 24254 ft | 494 kts | 71° |
| 2026-05-01 15:06 | 39.20902 | -8.26676 | 24654 ft | 498 kts | 71° |
| 2026-05-01 15:06 | 39.22075 | -8.22462 | 25045 ft | 502 kts | 71° |
| 2026-05-01 15:06 | 39.23251 | -8.18224 | 25431 ft | 506 kts | 71° |
| 2026-05-01 15:07 | 39.24445 | -8.13908 | 25802 ft | 510 kts | 71° |
| 2026-05-01 15:07 | 39.25640 | -8.09587 | 26162 ft | 514 kts | 71° |
| 2026-05-01 15:07 | 39.26845 | -8.05220 | 26544 ft | 518 kts | 71° |
| 2026-05-01 15:07 | 39.28055 | -8.00831 | 26898 ft | 521 kts | 70° |
| 2026-05-01 15:08 | 39.29307 | -7.96411 | 27243 ft | 525 kts | 70° |
| 2026-05-01 15:08 | 39.30590 | -7.91981 | 27592 ft | 529 kts | 69° |
| 2026-05-01 15:08 | 39.31888 | -7.87525 | 27932 ft | 532 kts | 69° |
| 2026-05-01 15:08 | 39.33191 | -7.83037 | 28258 ft | 536 kts | 69° |
| 2026-05-01 15:09 | 39.34495 | -7.78512 | 28569 ft | 539 kts | 69° |
| 2026-05-01 15:09 | 39.35800 | -7.73959 | 28889 ft | 542 kts | 69° |
| 2026-05-01 15:09 | 39.37093 | -7.69438 | 29175 ft | 545 kts | 69° |
| 2026-05-01 15:09 | 39.38410 | -7.64841 | 29520 ft | 546 kts | 68° |
| 2026-05-01 15:10 | 39.39900 | -7.60327 | 29969 ft | 545 kts | 64° |
| 2026-05-01 15:10 | 39.43322 | -7.51603 | 30752 ft | 543 kts | 60° |
| 2026-05-01 15:10 | 39.45086 | -7.47287 | 31102 ft | 543 kts | 60° |
| 2026-05-01 15:11 | 39.46833 | -7.42957 | 31442 ft | 542 kts | 61° |
| 2026-05-01 15:11 | 39.50238 | -7.34258 | 32055 ft | 544 kts | 62° |
| 2026-05-01 15:12 | 39.53607 | -7.25435 | 32104 ft | 545 kts | 62° |
| 2026-05-01 15:12 | 39.58588 | -7.12304 | 32100 ft | 539 kts | 62° |
| 2026-05-01 15:14 | 39.66828 | -6.90554 | 32096 ft | 538 kts | 62° |
| 2026-05-01 15:14 | 39.71767 | -6.77437 | 32094 ft | 540 kts | 62° |
| 2026-05-01 15:15 | 39.78348 | -6.59868 | 32093 ft | 541 kts | 62° |
| 2026-05-01 15:16 | 39.84889 | -6.42298 | 32092 ft | 538 kts | 62° |